createdAt,value
2023-02-18T00:02:11.146Z,12.10
2023-02-18T00:04:37.941Z,12.20
2023-02-18T00:07:04.650Z,12.20
2023-02-18T00:09:31.333Z,12.20
2023-02-18T00:11:58.135Z,12.20
2023-02-18T00:14:24.811Z,12.10
2023-02-18T00:16:51.614Z,12.20
2023-02-18T00:19:18.272Z,12.10
2023-02-18T00:21:44.973Z,12.10
2023-02-18T00:24:11.726Z,12.20
2023-02-18T00:26:38.535Z,12.10
2023-02-18T00:29:05.278Z,12.10
2023-02-18T00:31:32.112Z,12.10
2023-02-18T00:33:58.904Z,12.20
2023-02-18T00:36:25.656Z,12.10
2023-02-18T00:38:52.377Z,12.20
2023-02-18T00:41:19.056Z,12.20
2023-02-18T00:43:45.843Z,12.20
2023-02-18T00:46:12.634Z,12.10
2023-02-18T00:48:39.403Z,12.00
2023-02-18T00:51:06.154Z,12.00
2023-02-18T00:53:32.895Z,12.00
2023-02-18T00:55:59.590Z,12.00
2023-02-18T00:58:26.316Z,11.90
2023-02-18T01:00:53.004Z,11.90
2023-02-18T01:03:19.762Z,11.80
2023-02-18T01:05:46.515Z,11.80
2023-02-18T01:08:13.272Z,11.80
2023-02-18T01:10:40.104Z,11.70
2023-02-18T01:13:06.887Z,11.70
2023-02-18T01:15:33.593Z,11.60
2023-02-18T01:18:00.342Z,11.60
2023-02-18T01:20:27.037Z,11.70
2023-02-18T01:22:53.717Z,11.70
2023-02-18T01:25:20.436Z,11.70
2023-02-18T01:27:47.185Z,11.70
2023-02-18T01:30:13.925Z,11.70
2023-02-18T01:32:40.653Z,11.70
2023-02-18T01:35:08.576Z,11.70
2023-02-18T01:37:35.295Z,11.70
2023-02-18T01:40:01.909Z,11.70
2023-02-18T01:42:28.833Z,11.70
2023-02-18T01:44:55.588Z,11.70
2023-02-18T01:47:22.279Z,11.70
2023-02-18T01:49:49.143Z,11.70
2023-02-18T01:52:15.879Z,11.60
2023-02-18T01:54:42.571Z,11.60
2023-02-18T01:57:09.262Z,11.50
2023-02-18T01:59:36.030Z,11.40
2023-02-18T02:02:02.775Z,11.50
2023-02-18T02:04:29.503Z,11.40
2023-02-18T02:06:56.258Z,11.40
2023-02-18T02:09:23.027Z,11.30
2023-02-18T02:11:49.714Z,11.30
2023-02-18T02:14:16.890Z,11.30
2023-02-18T02:16:43.608Z,11.30
2023-02-18T02:19:10.400Z,11.30
2023-02-18T02:21:37.184Z,11.30
2023-02-18T02:24:03.894Z,11.30
2023-02-18T02:26:30.596Z,11.40
2023-02-18T02:28:57.313Z,11.40
2023-02-18T02:31:24.100Z,11.40
2023-02-18T02:33:50.966Z,11.40
2023-02-18T02:36:17.731Z,11.40
2023-02-18T02:38:44.500Z,11.40
2023-02-18T02:41:11.243Z,11.30
2023-02-18T02:43:37.994Z,11.30
2023-02-18T02:46:04.863Z,11.30
2023-02-18T02:48:31.680Z,11.20
2023-02-18T02:50:58.399Z,11.20
2023-02-18T02:53:25.099Z,11.20
2023-02-18T02:55:51.872Z,11.20
2023-02-18T02:58:18.586Z,11.20
2023-02-18T03:00:45.355Z,11.10
2023-02-18T03:03:12.184Z,11.20
2023-02-18T03:05:38.821Z,11.10
2023-02-18T03:08:05.690Z,11.10
2023-02-18T03:10:32.544Z,11.20
2023-02-18T03:12:59.202Z,11.10
2023-02-18T03:15:25.899Z,11.00
2023-02-18T03:17:52.622Z,11.10
2023-02-18T03:20:19.296Z,11.10
2023-02-18T03:22:46.153Z,11.00
2023-02-18T03:25:13.142Z,11.00
2023-02-18T03:27:39.841Z,11.00
2023-02-18T03:30:06.674Z,11.00
2023-02-18T03:32:33.422Z,11.00
2023-02-18T03:35:00.134Z,11.00
2023-02-18T03:37:27.451Z,11.00
2023-02-18T03:39:54.268Z,11.00
2023-02-18T03:42:20.971Z,11.00
2023-02-18T03:44:47.746Z,11.00
2023-02-18T03:47:14.446Z,11.00
2023-02-18T03:49:41.105Z,11.00
2023-02-18T03:52:07.783Z,10.90
2023-02-18T03:54:34.532Z,11.00
2023-02-18T03:57:01.293Z,11.00
2023-02-18T03:59:28.033Z,10.90
2023-02-18T04:01:54.783Z,11.00
2023-02-18T04:04:21.615Z,10.90
2023-02-18T04:06:48.406Z,10.90
2023-02-18T04:09:15.102Z,10.90
2023-02-18T04:11:41.896Z,10.90
2023-02-18T04:14:08.696Z,10.90
2023-02-18T04:16:35.491Z,10.80
2023-02-18T04:19:02.360Z,10.90
2023-02-18T04:21:29.065Z,10.90
2023-02-18T04:23:55.792Z,10.90
2023-02-18T04:26:22.858Z,10.90
2023-02-18T04:28:49.544Z,11.00
2023-02-18T04:31:16.544Z,10.90
2023-02-18T04:33:43.386Z,10.80
2023-02-18T04:36:10.437Z,10.70
2023-02-18T04:38:37.309Z,10.70
2023-02-18T04:41:04.023Z,10.80
2023-02-18T04:43:30.717Z,10.80
2023-02-18T04:45:57.561Z,10.80
2023-02-18T04:48:24.313Z,10.70
2023-02-18T04:50:51.154Z,10.70
2023-02-18T04:53:17.937Z,10.70
2023-02-18T04:55:44.711Z,10.70
2023-02-18T04:58:11.609Z,10.70
2023-02-18T05:00:38.312Z,10.70
2023-02-18T05:03:04.982Z,10.70
2023-02-18T05:05:31.628Z,10.70
2023-02-18T05:07:58.401Z,10.70
2023-02-18T05:10:25.125Z,10.70
2023-02-18T05:12:51.898Z,10.70
2023-02-18T05:15:18.879Z,10.70
2023-02-18T05:17:45.795Z,10.70
2023-02-18T05:20:12.567Z,10.70
2023-02-18T05:22:39.248Z,10.70
2023-02-18T05:25:05.956Z,10.70
2023-02-18T05:27:32.852Z,10.70
2023-02-18T05:29:59.602Z,10.80
2023-02-18T05:32:26.396Z,10.80
2023-02-18T05:34:53.153Z,10.80
2023-02-18T05:37:19.845Z,10.80
2023-02-18T05:39:46.650Z,10.90
2023-02-18T05:42:13.360Z,10.90
2023-02-18T05:44:40.198Z,10.90
2023-02-18T05:47:06.943Z,10.90
2023-02-18T05:49:33.657Z,10.90
2023-02-18T05:52:00.339Z,10.90
2023-02-18T05:54:27.095Z,10.90
2023-02-18T05:56:54.071Z,10.90
2023-02-18T05:59:20.831Z,10.90
2023-02-18T06:01:47.631Z,10.80
2023-02-18T06:04:14.297Z,10.80
2023-02-18T06:06:41.136Z,10.90
2023-02-18T06:09:07.942Z,10.80
2023-02-18T06:11:34.669Z,10.90
2023-02-18T06:14:01.603Z,10.90
2023-02-18T06:16:28.460Z,10.90
2023-02-18T06:18:55.401Z,10.90
2023-02-18T06:21:22.153Z,10.90
2023-02-18T06:23:48.856Z,10.90
2023-02-18T06:26:15.693Z,10.90
2023-02-18T06:28:42.424Z,11.00
2023-02-18T06:31:09.329Z,11.00
2023-02-18T06:33:36.230Z,11.00
2023-02-18T06:36:03.377Z,11.00
2023-02-18T06:38:30.205Z,11.00
2023-02-18T06:40:57.046Z,11.00
2023-02-18T06:43:23.834Z,11.00
2023-02-18T06:45:50.517Z,11.00
2023-02-18T06:48:17.196Z,11.00
2023-02-18T06:50:43.888Z,11.00
2023-02-18T06:53:10.551Z,11.10
2023-02-18T06:55:37.217Z,11.00
2023-02-18T06:58:03.871Z,11.10
2023-02-18T07:00:30.545Z,11.10
2023-02-18T07:02:57.162Z,11.10
2023-02-18T07:05:23.846Z,11.10
2023-02-18T07:07:50.477Z,11.10
2023-02-18T07:10:17.118Z,11.10
2023-02-18T07:12:43.804Z,11.10
2023-02-18T07:15:10.422Z,11.00
2023-02-18T07:17:37.062Z,11.10
2023-02-18T07:20:04.550Z,11.20
2023-02-18T07:22:31.164Z,11.00
2023-02-18T07:24:57.836Z,11.10
2023-02-18T07:27:24.450Z,11.10
2023-02-18T07:29:51.050Z,11.20
2023-02-18T07:32:17.665Z,11.20
2023-02-18T07:34:44.287Z,11.10
2023-02-18T07:37:12.465Z,11.10
2023-02-18T07:39:39.169Z,11.10
2023-02-18T07:42:05.852Z,11.10
2023-02-18T07:44:32.506Z,11.10
2023-02-18T07:46:59.920Z,11.20
2023-02-18T07:49:26.545Z,11.20
2023-02-18T07:51:53.197Z,11.20
2023-02-18T07:54:19.918Z,11.10
2023-02-18T07:56:46.737Z,11.20
2023-02-18T07:59:13.446Z,11.10
2023-02-18T08:01:40.106Z,11.20
2023-02-18T08:04:06.729Z,11.20
2023-02-18T08:06:33.435Z,11.20
2023-02-18T08:09:00.150Z,11.30
2023-02-18T08:11:26.905Z,11.30
2023-02-18T08:13:53.771Z,11.30
2023-02-18T08:16:20.459Z,11.30
2023-02-18T08:18:48.007Z,11.30
2023-02-18T08:21:15.023Z,11.30
2023-02-18T08:23:41.634Z,11.30
2023-02-18T08:26:08.858Z,11.40
2023-02-18T08:28:35.752Z,11.40
2023-02-18T08:31:02.551Z,11.40
2023-02-18T08:33:29.242Z,11.40
2023-02-18T08:35:56.114Z,11.40
2023-02-18T08:38:22.756Z,11.40
2023-02-18T08:40:49.399Z,11.50
2023-02-18T08:43:16.103Z,11.50
2023-02-18T08:45:42.882Z,11.40
2023-02-18T08:48:19.565Z,11.50
2023-02-18T08:50:46.935Z,11.40
2023-02-18T08:53:13.610Z,11.50
2023-02-18T08:55:40.242Z,11.50
2023-02-18T08:58:06.953Z,11.50
2023-02-18T09:00:33.709Z,11.60
2023-02-18T09:03:00.352Z,11.60
2023-02-18T09:05:26.985Z,11.70
2023-02-18T09:07:53.656Z,11.70
2023-02-18T09:10:20.264Z,11.70
2023-02-18T09:12:46.896Z,11.80
2023-02-18T09:15:13.600Z,11.90
2023-02-18T09:17:40.227Z,11.90
2023-02-18T09:20:06.864Z,11.90
2023-02-18T09:22:33.528Z,11.90
2023-02-18T09:25:00.160Z,11.90
2023-02-18T09:27:26.775Z,12.00
2023-02-18T09:29:53.464Z,12.10
2023-02-18T09:32:33.781Z,12.10
2023-02-18T09:35:01.805Z,12.20
2023-02-18T09:37:29.000Z,12.10
2023-02-18T09:39:55.670Z,12.20
2023-02-18T09:42:22.318Z,12.10
2023-02-18T09:44:48.985Z,12.10
2023-02-18T09:47:15.631Z,12.10
2023-02-18T09:49:42.278Z,12.10
2023-02-18T09:52:08.962Z,12.10
2023-02-18T09:54:35.621Z,12.10
2023-02-18T09:57:02.239Z,12.20
2023-02-18T09:59:28.878Z,12.10
2023-02-18T10:01:57.172Z,12.20
2023-02-18T10:04:24.085Z,12.10
2023-02-18T10:06:50.748Z,12.20
2023-02-18T10:09:17.567Z,12.20
2023-02-18T10:11:44.260Z,12.30
2023-02-18T10:14:10.850Z,12.40
2023-02-18T10:16:37.506Z,12.50
2023-02-18T10:19:04.166Z,12.60
2023-02-18T10:21:31.495Z,12.80
2023-02-18T10:23:58.228Z,12.70
2023-02-18T10:26:24.848Z,12.70
2023-02-18T10:28:52.566Z,12.80
2023-02-18T10:31:19.280Z,12.80
2023-02-18T10:33:46.830Z,12.70
2023-02-18T10:36:13.503Z,12.90
2023-02-18T10:38:40.207Z,13.00
2023-02-18T10:41:07.258Z,13.10
2023-02-18T10:43:34.105Z,13.00
2023-02-18T10:46:00.836Z,12.90
2023-02-18T10:48:27.486Z,12.90
2023-02-18T10:50:54.214Z,13.00
2023-02-18T10:53:20.929Z,13.00
2023-02-18T10:55:49.553Z,12.80
2023-02-18T10:58:16.261Z,12.90
2023-02-18T11:00:42.990Z,13.00
2023-02-18T11:03:09.606Z,12.90
2023-02-18T11:05:36.261Z,12.80
2023-02-18T11:08:03.025Z,12.90
2023-02-18T11:10:29.627Z,12.90
2023-02-18T11:12:56.252Z,13.00
2023-02-18T11:15:23.765Z,12.90
2023-02-18T11:17:50.441Z,12.90
2023-02-18T11:20:17.123Z,13.00
2023-02-18T11:22:43.777Z,13.00
2023-02-18T11:25:10.378Z,13.10
2023-02-18T11:27:36.962Z,13.00
2023-02-18T11:30:03.665Z,13.00
2023-02-18T11:32:30.311Z,13.00
2023-02-18T11:34:57.158Z,13.00
2023-02-18T11:37:23.969Z,12.90
2023-02-18T11:39:50.637Z,12.90
2023-02-18T11:42:17.292Z,12.90
2023-02-18T11:44:44.167Z,13.00
2023-02-18T11:47:10.796Z,12.80
2023-02-18T11:49:37.451Z,12.80
2023-02-18T11:52:04.084Z,12.80
2023-02-18T11:54:31.530Z,12.90
2023-02-18T11:56:58.281Z,13.00
2023-02-18T11:59:25.014Z,13.00
2023-02-18T12:01:51.670Z,13.00
2023-02-18T12:04:18.319Z,12.90
2023-02-18T12:06:44.965Z,13.00
2023-02-18T12:09:11.542Z,12.90
2023-02-18T12:11:38.180Z,12.90
2023-02-18T12:14:04.855Z,12.80
2023-02-18T12:16:31.870Z,12.90
2023-02-18T12:18:58.632Z,12.90
2023-02-18T12:21:27.237Z,13.00
2023-02-18T12:23:54.012Z,13.10
2023-02-18T12:26:20.643Z,13.00
2023-02-18T12:28:47.335Z,13.10
2023-02-18T12:31:14.082Z,13.00
2023-02-18T12:33:40.705Z,13.10
2023-02-18T12:36:07.770Z,13.10
2023-02-18T12:38:34.585Z,13.10
2023-02-18T12:41:01.306Z,13.00
2023-02-18T12:43:27.992Z,12.90
2023-02-18T12:45:54.685Z,13.00
2023-02-18T12:48:21.392Z,13.00
2023-02-18T12:50:48.080Z,12.90
2023-02-18T12:53:14.757Z,12.80
2023-02-18T12:55:41.462Z,12.80
2023-02-18T12:58:08.201Z,12.80
2023-02-18T13:00:34.956Z,12.80
2023-02-18T13:03:04.164Z,12.70
2023-02-18T13:05:30.887Z,12.70
2023-02-18T13:07:57.698Z,12.70
2023-02-18T13:10:24.445Z,12.60
2023-02-18T13:12:51.281Z,12.50
2023-02-18T13:15:17.985Z,12.60
2023-02-18T13:17:44.927Z,12.60
2023-02-18T13:20:15.032Z,12.70
2023-02-18T13:22:41.803Z,12.70
2023-02-18T13:25:08.698Z,12.70
2023-02-18T13:27:37.982Z,12.70
2023-02-18T13:30:04.901Z,12.70
2023-02-18T13:32:31.811Z,12.80
2023-02-18T13:34:58.626Z,12.80
2023-02-18T13:37:25.384Z,12.80
2023-02-18T13:39:54.889Z,12.70
2023-02-18T13:42:21.723Z,12.80
2023-02-18T13:44:48.522Z,12.70
2023-02-18T13:47:15.498Z,12.70
2023-02-18T13:49:42.971Z,12.80
2023-02-18T13:52:09.717Z,12.90
2023-02-18T13:54:36.426Z,13.00
2023-02-18T13:57:03.718Z,13.10
2023-02-18T13:59:30.632Z,13.00
2023-02-18T14:01:57.378Z,13.10
2023-02-18T14:04:24.113Z,13.00
2023-02-18T14:06:50.933Z,13.00
2023-02-18T14:09:17.673Z,13.00
2023-02-18T14:11:44.419Z,12.90
2023-02-18T14:14:11.120Z,12.90
2023-02-18T14:16:37.856Z,13.00
2023-02-18T14:19:05.061Z,13.00
2023-02-18T14:21:31.953Z,12.90
2023-02-18T14:23:58.757Z,12.90
2023-02-18T14:26:25.538Z,12.90
2023-02-18T14:28:52.275Z,13.10
2023-02-18T14:31:22.008Z,13.00
2023-02-18T14:33:48.915Z,13.10
2023-02-18T14:36:15.678Z,13.00
2023-02-18T14:38:42.387Z,13.00
2023-02-18T14:41:09.442Z,13.00
2023-02-18T14:43:36.401Z,13.00
2023-02-18T14:46:03.228Z,13.00
2023-02-18T14:48:30.182Z,13.00
2023-02-18T14:50:56.903Z,13.00
2023-02-18T14:53:23.687Z,12.90
2023-02-18T14:55:50.360Z,12.80
2023-02-18T14:58:17.019Z,12.90
2023-02-18T15:00:43.702Z,12.70
2023-02-18T15:03:10.485Z,12.70
2023-02-18T15:05:37.124Z,12.60
2023-02-18T15:08:03.889Z,12.70
2023-02-18T15:10:32.035Z,12.70
2023-02-18T15:12:58.688Z,12.70
2023-02-18T15:15:25.410Z,12.60
2023-02-18T15:17:52.071Z,12.60
2023-02-18T15:20:18.782Z,12.70
2023-02-18T15:22:45.449Z,12.90
2023-02-18T15:25:12.061Z,12.90
2023-02-18T15:27:38.687Z,12.90
2023-02-18T15:30:05.436Z,12.90
2023-02-18T15:32:32.079Z,12.90
2023-02-18T15:34:58.909Z,13.00
2023-02-18T15:37:25.515Z,13.00
2023-02-18T15:39:52.180Z,13.00
2023-02-18T15:42:18.882Z,13.10
2023-02-18T15:44:45.559Z,13.00
2023-02-18T15:47:12.290Z,13.00
2023-02-18T15:49:38.982Z,13.10
2023-02-18T15:52:05.595Z,13.00
2023-02-18T15:54:32.239Z,13.00
2023-02-18T15:56:58.985Z,13.00
2023-02-18T15:59:25.639Z,12.90
2023-02-18T16:01:52.347Z,13.10
2023-02-18T16:04:19.013Z,13.00
2023-02-18T16:06:45.640Z,12.90
2023-02-18T16:09:12.365Z,12.90
2023-02-18T16:11:39.297Z,13.00
2023-02-18T16:14:09.187Z,12.90
2023-02-18T16:16:35.982Z,13.00
2023-02-18T16:19:02.660Z,13.00
2023-02-18T16:21:29.245Z,12.90
2023-02-18T16:23:58.122Z,13.00
2023-02-18T16:26:24.881Z,13.00
2023-02-18T16:28:51.500Z,12.90
2023-02-18T16:31:18.170Z,12.90
2023-02-18T16:33:44.882Z,12.90
2023-02-18T16:36:11.543Z,12.90
2023-02-18T16:38:38.148Z,12.90
2023-02-18T16:41:04.814Z,12.90
2023-02-18T16:43:33.228Z,12.90
2023-02-18T16:46:00.009Z,13.00
2023-02-18T16:48:26.781Z,12.90
2023-02-18T16:50:53.440Z,13.00
2023-02-18T16:53:20.538Z,12.90
2023-02-18T16:55:47.177Z,12.90
2023-02-18T16:58:13.815Z,12.90
2023-02-18T17:00:40.524Z,12.80
2023-02-18T17:03:07.185Z,12.80
2023-02-18T17:05:39.451Z,12.80
2023-02-18T17:08:06.158Z,12.80
2023-02-18T17:10:32.818Z,12.70
2023-02-18T17:12:59.472Z,12.80
2023-02-18T17:15:26.272Z,12.70
2023-02-18T17:17:52.954Z,12.60
2023-02-18T17:20:19.593Z,12.60
2023-02-18T17:22:46.185Z,12.60
2023-02-18T17:25:13.100Z,12.50
2023-02-18T17:27:39.730Z,12.50
2023-02-18T17:30:06.413Z,12.60
2023-02-18T17:32:33.088Z,12.50
2023-02-18T17:34:59.719Z,12.60
2023-02-18T17:37:26.364Z,12.50
2023-02-18T17:39:52.973Z,12.50
2023-02-18T17:42:21.424Z,12.50
2023-02-18T17:44:48.060Z,12.60
2023-02-18T17:47:14.828Z,12.60
2023-02-18T17:49:41.503Z,12.50
2023-02-18T17:52:08.132Z,12.50
2023-02-18T17:54:34.798Z,12.50
2023-02-18T17:57:01.519Z,12.50
2023-02-18T17:59:29.209Z,12.40
2023-02-18T18:01:55.931Z,12.40
2023-02-18T18:04:22.674Z,12.40
2023-02-18T18:06:50.060Z,12.30
2023-02-18T18:09:16.795Z,12.40
2023-02-18T18:11:43.521Z,12.40
2023-02-18T18:14:10.160Z,12.40
2023-02-18T18:16:36.877Z,12.30
2023-02-18T18:19:03.517Z,12.30
2023-02-18T18:21:30.240Z,12.20
2023-02-18T18:23:56.889Z,12.20
2023-02-18T18:26:23.518Z,12.10
2023-02-18T18:28:50.206Z,12.10
2023-02-18T18:31:18.815Z,12.10
2023-02-18T18:33:48.999Z,12.10
2023-02-18T18:36:16.045Z,12.00
2023-02-18T18:38:42.804Z,12.00
2023-02-18T18:41:12.232Z,12.00
2023-02-18T18:43:40.358Z,12.00
2023-02-18T18:46:07.086Z,12.00
2023-02-18T18:48:33.786Z,11.90
2023-02-18T18:51:01.992Z,12.00
2023-02-18T18:53:29.956Z,11.90
2023-02-18T18:55:56.618Z,11.90
2023-02-18T18:58:24.787Z,11.90
2023-02-18T19:00:51.539Z,11.80
2023-02-18T19:03:18.264Z,11.80
2023-02-18T19:05:44.967Z,11.80
2023-02-18T19:08:11.864Z,11.80
2023-02-18T19:10:38.577Z,11.70
2023-02-18T19:13:05.330Z,11.80
2023-02-18T19:15:32.085Z,11.70
2023-02-18T19:17:58.778Z,11.70
2023-02-18T19:20:25.532Z,11.60
2023-02-18T19:22:52.314Z,11.60
2023-02-18T19:25:19.056Z,11.60
2023-02-18T19:27:45.773Z,11.50
2023-02-18T19:30:12.440Z,11.50
2023-02-18T19:32:39.228Z,11.40
2023-02-18T19:35:05.980Z,11.40
2023-02-18T19:37:33.111Z,11.40
2023-02-18T19:39:59.966Z,11.40
2023-02-18T19:42:26.629Z,11.30
2023-02-18T19:44:55.710Z,11.30
2023-02-18T19:47:22.372Z,11.20
2023-02-18T19:49:49.112Z,11.20
2023-02-18T19:52:15.800Z,11.20
2023-02-18T19:54:42.487Z,11.20
2023-02-18T19:57:09.281Z,11.10
2023-02-18T19:59:36.460Z,11.10
2023-02-18T20:02:03.203Z,11.10
2023-02-18T20:04:29.985Z,11.10
2023-02-18T20:06:56.715Z,11.00
2023-02-18T20:09:23.519Z,11.00
2023-02-18T20:11:50.201Z,10.90
2023-02-18T20:14:19.461Z,10.90
2023-02-18T20:16:46.732Z,10.80
2023-02-18T20:19:13.457Z,10.80
2023-02-18T20:21:40.371Z,10.80
2023-02-18T20:24:07.073Z,10.70
2023-02-18T20:26:33.795Z,10.60
2023-02-18T20:29:00.512Z,10.60
2023-02-18T20:31:27.337Z,10.60
2023-02-18T20:33:54.118Z,10.60
2023-02-18T20:36:20.833Z,10.60
2023-02-18T20:38:49.400Z,10.60
2023-02-18T20:41:18.085Z,10.60
2023-02-18T20:43:44.872Z,10.70
2023-02-18T20:46:11.711Z,10.60
2023-02-18T20:48:38.393Z,10.70
2023-02-18T20:51:05.240Z,10.70
2023-02-18T20:53:32.122Z,10.80
2023-02-18T20:55:58.985Z,10.80
2023-02-18T20:58:25.732Z,10.70
2023-02-18T21:00:52.420Z,10.80
2023-02-18T21:03:19.151Z,10.80
2023-02-18T21:05:45.899Z,10.80
2023-02-18T21:08:12.633Z,10.80
2023-02-18T21:10:39.350Z,10.80
2023-02-18T21:13:06.077Z,10.80
2023-02-18T21:15:32.798Z,10.90
2023-02-18T21:17:59.754Z,10.90
2023-02-18T21:20:26.484Z,10.80
2023-02-18T21:22:55.401Z,10.80
2023-02-18T21:25:23.015Z,10.80
2023-02-18T21:27:49.779Z,10.80
2023-02-18T21:30:16.470Z,10.90
2023-02-18T21:32:43.180Z,10.90
2023-02-18T21:35:10.179Z,10.90
2023-02-18T21:37:36.863Z,10.90
2023-02-18T21:40:03.632Z,10.90
2023-02-18T21:42:30.391Z,11.00
2023-02-18T21:44:57.205Z,10.90
2023-02-18T21:47:23.960Z,10.90
2023-02-18T21:49:50.721Z,10.90
2023-02-18T21:52:17.438Z,11.00
2023-02-18T21:54:47.390Z,10.90
2023-02-18T21:57:14.138Z,11.00
2023-02-18T21:59:40.913Z,10.90
2023-02-18T22:02:07.661Z,10.90
2023-02-18T22:04:34.437Z,10.80
2023-02-18T22:07:02.531Z,10.80
2023-02-18T22:09:29.288Z,10.80
2023-02-18T22:11:56.013Z,10.90
2023-02-18T22:14:22.813Z,10.80
2023-02-18T22:16:49.510Z,10.80
2023-02-18T22:19:16.202Z,10.80
2023-02-18T22:21:42.892Z,10.80
2023-02-18T22:24:11.083Z,10.70
2023-02-18T22:26:37.807Z,10.70
2023-02-18T22:29:04.626Z,10.70
2023-02-18T22:31:31.669Z,10.70
2023-02-18T22:33:58.292Z,10.60
2023-02-18T22:36:25.102Z,10.60
2023-02-18T22:38:51.811Z,10.60
2023-02-18T22:41:18.447Z,10.50
2023-02-18T22:43:45.141Z,10.50
2023-02-18T22:46:11.968Z,10.50
2023-02-18T22:48:38.800Z,10.40
2023-02-18T22:51:05.505Z,10.40
2023-02-18T22:53:32.168Z,10.30
2023-02-18T22:55:58.813Z,10.30
2023-02-18T22:58:25.556Z,10.30
2023-02-18T23:00:52.227Z,10.30
2023-02-18T23:03:18.962Z,10.20
2023-02-18T23:05:45.815Z,10.20
2023-02-18T23:08:12.548Z,10.20
2023-02-18T23:10:39.196Z,10.20
2023-02-18T23:13:05.930Z,10.10
2023-02-18T23:15:32.648Z,10.00
2023-02-18T23:17:59.326Z,10.00
2023-02-18T23:20:58.585Z,10.00
2023-02-18T23:23:25.269Z,10.00
2023-02-18T23:25:51.957Z,9.90
2023-02-18T23:28:18.586Z,9.90
2023-02-18T23:30:45.381Z,9.80
2023-02-18T23:33:12.123Z,9.80
2023-02-18T23:35:38.876Z,9.80
2023-02-18T23:38:05.610Z,9.70
2023-02-18T23:40:32.417Z,9.70
2023-02-18T23:42:59.216Z,9.70
2023-02-18T23:45:25.917Z,9.60
2023-02-18T23:47:52.574Z,9.60
2023-02-18T23:50:19.307Z,9.60
2023-02-18T23:52:46.018Z,9.60
2023-02-18T23:55:12.794Z,9.60
2023-02-18T23:57:39.496Z,9.50
